Latest Weather Observations for Lord Howe Island

IDN60801

Issued at 2:03 pm EDT Saturday 25 November 2017 (issued every 30 minutes, with the page automatically refreshed every 10 minutes)

About weather observations | Map of weather stations | Latest weather observations for NSW | Other Formats
Station Details ID: 200839 Name: LORD HOWE ISLAND AERO Lat: -31.54 Lon: 159.08 Height: 5.0 m
Data from the previous 72 hours. | See also: Recent months at Lord Howe Island
Date/Time
EDT
Temp
°C
App
Temp
°C
Dew
Point
°C
Rel
Hum
%
Delta-T
°C
Wind Press
QNH
hPa
Press
MSL
hPa
Rain since
9am
mm
Dir  Spd
km/h
Gust
km/h
Spd
kts
Gust
kts
25/02:00pm 21.7 18.3 17.7 78 2.5 ENE 32 37 17 20 1018.3 - 0.2
25/01:43pm 22.1 19.6 18.9 82 2.0 ENE 30 35 16 19 1018.4 - 0.2
25/01:30pm 22.7 21.1 19.1 80 2.3 ENE 26 32 14 17 1018.4 - 0.2
25/01:01pm 22.4 20.0 19.0 81 2.2 ENE 30 35 16 19 1018.7 - 0.2
25/01:00pm 22.3 19.7 18.7 80 2.3 ENE 30 35 16 19 1018.7 - 0.2
25/12:50pm 22.3 19.9 19.1 82 2.0 ENE 30 35 16 19 1018.8 - 0.2
25/12:30pm 22.6 21.0 19.2 81 2.2 ENE 26 33 14 18 1019.0 - 0.2
25/12:00pm 22.3 20.3 19.1 82 2.0 ENE 28 32 15 17 1019.0 1019.0 0.2
25/11:40am 22.8 20.7 19.8 83 1.9 NE 30 35 16 19 1019.1 - 0.0
25/11:30am 22.4 20.0 19.0 81 2.2 ENE 30 37 16 20 1019.1 - 0.0
25/11:14am 21.8 19.6 18.8 83 1.9 NE 28 35 15 19 1019.2 - 0.0
25/11:00am 22.7 20.0 19.3 81 2.2 ENE 32 39 17 21 1019.3 - 0.0
25/10:30am 22.2 19.6 18.6 80 2.3 ENE 30 39 16 21 1019.4 - 0.0
25/10:00am 21.9 19.6 18.5 81 2.1 ENE 28 35 15 19 1019.3 - 0.0
25/09:30am 21.6 19.3 18.4 82 2.0 ENE 28 35 15 19 1019.4 - 0.0
25/09:00am 21.6 19.7 18.6 83 1.9 ENE 26 32 14 17 1019.3 1019.3 2.0
25/08:30am 21.4 19.9 18.6 84 1.8 ENE 24 32 13 17 1019.4 - 2.0
25/08:02am 21.1 19.9 18.3 84 1.7 ENE 22 30 12 16 1019.5 - 2.0
25/08:00am 21.1 19.5 18.3 84 1.7 ENE 24 30 13 16 1019.5 - 2.0
25/07:30am 21.6 19.5 18.0 80 2.2 ENE 26 32 14 17 1019.3 - 2.0
25/07:00am 21.1 19.2 17.7 81 2.1 E 24 30 13 16 1019.1 - 2.0
25/06:30am 20.7 18.9 17.9 84 1.7 E 24 32 13 17 1018.7 - 2.0
25/06:00am 20.8 18.8 18.2 85 1.6 ENE 26 35 14 19 1018.5 1018.5 2.0
25/05:30am 20.5 18.4 18.1 86 1.5 ENE 26 33 14 18 1018.2 - 2.0
25/05:20am 20.4 18.6 17.8 85 1.6 ENE 24 32 13 17 1018.1 - 2.0
25/05:00am 20.3 18.3 17.5 84 1.7 ENE 24 32 13 17 1018.0 - 2.0
25/04:30am 20.4 18.5 17.6 84 1.7 ENE 24 32 13 17 1017.8 - 2.0
25/04:00am 20.4 18.4 18.2 87 1.4 ENE 26 32 14 17 1017.7 - 2.0
25/03:43am 20.3 17.7 17.9 86 1.5 ENE 28 33 15 18 1017.6 - 2.0
25/03:30am 20.3 17.9 18.2 88 1.3 ENE 28 35 15 19 1017.6 - 2.0
25/03:00am 20.3 18.1 18.6 90 1.1 ENE 28 33 15 18 1017.6 1017.6 2.0
25/02:30am 20.1 18.0 18.0 88 1.3 ENE 26 35 14 19 1017.7 - 2.0
25/02:23am 20.1 18.1 18.2 89 1.2 ENE 26 35 14 19 1017.8 - 2.0
25/02:00am 20.2 18.2 18.3 89 1.2 ENE 26 35 14 19 1017.9 - 2.0
25/01:45am 20.6 18.4 18.7 89 1.2 ENE 28 35 15 19 1018.1 - 2.0
25/01:43am 20.5 18.2 18.4 88 1.3 ENE 28 35 15 19 1018.1 - 2.0
25/01:30am 20.3 17.4 17.9 86 1.5 ENE 30 35 16 19 1018.3 - 2.0
25/01:29am 20.3 17.5 18.1 87 1.4 ENE 30 35 16 19 1018.3 - 2.0
25/01:15am 20.4 17.6 18.2 87 1.4 ENE 30 35 16 19 1018.3 - 2.0
25/01:08am 20.4 18.0 18.2 87 1.4 ENE 28 35 15 19 1018.3 - 2.0
25/01:00am 20.2 17.7 18.0 87 1.4 ENE 28 35 15 19 1018.4 - 2.0
25/12:30am 20.5 18.7 18.8 90 1.1 ENE 26 33 14 18 1018.6 - 2.0
25/12:01am 20.4 18.1 18.5 89 1.2 ENE 28 33 15 18 1018.8 - 2.0
25/12:00am 20.4 18.1 18.5 89 1.2 ENE 28 33 15 18 1018.7 1018.7 2.0
 
Date/Time
EDT
Temp
°C
App
Temp
°C
Dew
Point
°C
Rel
Hum
%
Delta-T
°C
Wind Press
QNH
hPa
Press
MSL
hPa
Rain since
9am
mm
Dir  Spd
km/h
Gust
km/h
Spd
kts
Gust
kts
24/11:30pm 20.3 17.2 18.8 91 0.9 ENE 33 41 18 22 1019.0 - 2.0
24/11:00pm 20.3 16.9 19.0 92 0.8 ENE 35 43 19 23 1019.1 - 2.0
24/10:50pm 20.3 17.3 19.0 92 0.8 ENE 33 41 18 22 1019.1 - 2.0
24/10:30pm 19.9 17.1 19.1 95 0.5 NE 32 39 17 21 1019.4 - 2.0
24/10:09pm 20.1 17.2 18.9 93 0.8 ENE 32 39 17 21 1019.4 - 2.0
24/10:04pm 20.3 17.8 18.8 91 0.9 ENE 30 37 16 20 1019.5 - 2.0
24/10:00pm 20.3 17.4 18.8 91 0.9 ENE 32 39 17 21 1019.5 - 2.0
24/09:44pm 19.9 16.7 18.6 92 0.8 ENE 33 41 18 22 1019.6 - 2.0
24/09:30pm 20.2 16.6 18.5 90 1.1 NE 35 43 19 23 1019.6 - 2.0
24/09:17pm 20.1 16.9 18.6 91 0.9 ENE 33 43 18 23 1019.5 - 2.0
24/09:00pm 19.9 17.5 19.2 96 0.4 NE 30 39 16 21 1019.5 1019.5 2.0
24/08:42pm 20.1 17.3 19.1 94 0.6 ENE 32 39 17 21 1019.4 - 0.8
24/08:30pm 20.5 17.5 19.0 91 0.9 ENE 33 43 18 23 1019.2 - 0.8
24/08:00pm 19.9 16.1 18.9 94 0.6 ENE 37 48 20 26 1018.8 - 0.8
24/07:54pm 20.3 17.1 19.5 95 0.5 ENE 35 44 19 24 1018.7 - 0.8
24/07:30pm 20.1 17.2 19.3 95 0.5 ENE 33 39 18 21 1018.5 - 0.8
24/07:25pm 20.3 17.4 19.3 94 0.6 ENE 33 43 18 23 1018.4 - 0.8
24/07:00pm 20.6 17.2 18.9 90 1.1 ENE 35 44 19 24 1018.4 - 0.8
24/06:30pm 20.7 17.8 19.2 91 0.9 ENE 33 43 18 23 1018.2 - 0.8
24/06:14pm 20.6 17.3 19.3 92 0.8 ENE 35 43 19 23 1018.1 - 0.8
24/06:00pm 20.6 17.4 19.4 93 0.8 ENE 35 46 19 25 1018.0 1018.0 0.8
24/05:54pm 20.5 17.6 19.2 92 0.8 ENE 33 41 18 22 1017.9 - 0.4
24/05:48pm 20.8 18.0 19.5 92 0.8 ENE 33 41 18 22 1017.9 - 0.2
24/05:30pm 20.6 19.3 19.8 95 0.5 E 26 33 14 18 1017.8 - 0.2
24/05:00pm 20.8 19.8 19.6 93 0.8 ENE 24 32 13 17 1017.6 - 0.0
24/04:56pm 21.0 20.0 19.6 92 0.9 ENE 24 30 13 16 1017.7 - 0.0
24/04:30pm 21.8 21.7 19.9 89 1.2 ENE 20 26 11 14 1017.6 - 0.0
24/04:00pm 21.9 21.6 19.6 87 1.5 ENE 20 24 11 13 1017.8 - 0.0
24/03:30pm 21.9 21.6 19.6 87 1.5 ENE 20 24 11 13 1018.0 - 0.0
24/03:00pm 22.8 23.1 20.5 87 1.5 ENE 19 26 10 14 1018.3 1018.3 0.0
24/02:30pm 21.5 20.8 19.4 88 1.3 NE 22 30 12 16 1018.5 - 0.0
24/02:00pm 21.2 20.8 19.3 89 1.2 ENE 20 26 11 14 1018.3 - 0.0
24/01:30pm 21.9 21.2 19.5 86 1.5 NE 22 26 12 14 1018.9 - 0.0
24/01:00pm 22.5 22.1 20.2 87 1.5 NE 22 32 12 17 1019.0 - 0.0
24/12:30pm 22.8 22.4 20.1 85 1.7 NE 22 28 12 15 1019.4 - 0.0
24/12:00pm 23.4 23.5 21.1 87 1.5 NE 22 30 12 16 1019.5 1019.5 0.0
24/11:30am 22.1 21.6 19.1 83 1.9 NE 20 24 11 13 1019.5 - 0.0
24/11:00am 22.5 21.7 18.5 78 2.5 NE 20 26 11 14 1019.4 - 0.0
24/10:30am 22.5 20.8 17.2 72 3.3 NE 22 28 12 15 1019.7 - 0.0
24/10:00am 22.9 21.3 19.3 80 2.3 NE 26 33 14 18 1019.6 - 0.0
24/09:30am 22.1 20.5 19.3 84 1.8 NE 26 32 14 17 1019.9 - 0.0
24/09:00am 21.4 19.3 17.2 77 2.6 NE 24 30 13 16 1020.0 1020.0 3.2
24/08:30am 21.5 19.3 17.9 80 2.2 NNE 26 32 14 17 1020.0 - 3.2
24/08:00am 21.7 19.4 17.5 77 2.6 NE 26 33 14 18 1019.6 - 3.2
24/07:35am 21.1 18.9 17.9 82 2.0 NE 26 35 14 19 1019.6 - 3.2
24/07:30am 20.9 18.5 18.3 85 1.6 NE 28 37 15 20 1019.6 - 3.2
24/07:00am 21.0 19.0 19.1 89 1.2 NE 28 37 15 20 1019.3 - 3.2
24/06:53am 20.7 18.6 19.0 90 1.1 NE 28 37 15 20 1019.2 - 3.2
24/06:52am 20.7 18.6 19.0 90 1.1 NE 28 37 15 20 1019.2 - 3.2
24/06:30am 20.4 17.6 18.3 88 1.3 NNE 30 37 16 20 1018.8 - 3.2
24/06:13am 20.7 19.0 19.0 90 1.1 NE 26 33 14 18 1018.6 - 3.2
24/06:00am 20.6 18.7 18.5 88 1.3 NE 26 32 14 17 1018.4 1018.4 3.2
24/05:30am 20.6 18.1 18.9 90 1.1 NE 30 39 16 21 1018.0 - 3.2
24/05:04am 20.6 18.2 19.1 91 0.9 NE 30 37 16 20 1017.9 - 3.2
24/05:00am 20.7 18.0 19.2 91 0.9 NE 32 41 17 22 1017.8 - 3.2
24/04:47am 20.6 17.9 19.3 92 0.8 NE 32 39 17 21 1017.6 - 3.2
24/04:30am 20.3 17.6 19.3 94 0.6 NE 32 41 17 22 1017.6 - 3.2
24/04:23am 20.5 18.1 19.2 92 0.8 ENE 30 41 16 22 1017.6 - 2.6
24/04:00am 20.4 20.2 19.4 94 0.6 ENE 19 30 10 16 1017.6 - 2.0
24/03:59am 20.4 20.6 19.4 94 0.6 E 17 30 9 16 1017.6 - 2.0
24/03:30am 20.3 19.8 19.1 93 0.8 NE 20 26 11 14 1017.9 - 0.6
24/03:00am 20.4 19.5 19.1 92 0.8 NNE 22 26 12 14 1017.9 1017.9 0.2
24/02:40am 20.1 19.7 18.9 93 0.8 NNE 19 24 10 13 1018.1 - 0.2
24/02:30am 20.0 19.9 18.8 93 0.8 NNE 17 26 9 14 1018.2 - 0.2
24/02:23am 20.1 20.1 18.9 93 0.8 NNE 17 20 9 11 1018.3 - 0.2
24/02:00am 20.2 20.2 18.9 92 0.8 NNE 17 22 9 12 1018.6 - 0.0
24/01:54am 20.0 19.9 18.7 92 0.8 NNE 17 20 9 11 1018.5 - 0.0
24/01:53am 20.0 19.9 18.7 92 0.8 NNE 17 20 9 11 1018.5 - 0.0
24/01:30am 19.8 18.9 18.3 91 0.9 ENE 20 24 11 13 1018.8 - 0.0
24/01:00am 19.9 19.5 18.0 89 1.2 ENE 17 22 9 12 1018.8 - 0.0
24/12:51am 19.7 19.7 18.0 90 1.0 E 15 20 8 11 1018.9 - 0.0
24/12:30am 19.4 19.3 17.9 91 0.9 E 15 19 8 10 1018.9 - 0.0
24/12:17am 19.4 18.9 17.9 91 0.9 E 17 20 9 11 1019.0 - 0.0
24/12:00am 19.5 19.1 18.0 91 0.9 E 17 20 9 11 1019.2 1019.2 0.0
 
Date/Time
EDT
Temp
°C
App
Temp
°C
Dew
Point
°C
Rel
Hum
%
Delta-T
°C
Wind Press
QNH
hPa
Press
MSL
hPa
Rain since
9am
mm
Dir  Spd
km/h
Gust
km/h
Spd
kts
Gust
kts
23/11:34pm 19.6 18.7 18.1 91 0.9 E 20 24 11 13 1019.6 - 0.0
23/11:30pm 19.7 18.8 18.2 91 0.9 E 20 26 11 14 1019.5 - 0.0
23/11:00pm 19.6 18.7 17.7 89 1.2 E 19 22 10 12 1019.6 - 0.0
23/10:30pm 19.3 18.1 17.6 90 1.0 E 20 24 11 13 1019.7 - 0.0
23/10:00pm 19.3 18.1 17.6 90 1.0 E 20 26 11 14 1019.8 - 0.0
23/09:30pm 19.2 18.9 17.3 89 1.2 ENE 15 19 8 10 1019.6 - 0.0
23/09:00pm 19.4 19.0 17.2 87 1.3 ENE 15 17 8 9 1019.4 1019.4 0.0
23/08:30pm 20.1 18.7 16.9 82 1.9 ENE 20 24 11 13 1019.4 - 0.0
23/08:04pm 19.9 19.4 17.7 87 1.4 ENE 17 20 9 11 1019.2 - 0.0
23/08:00pm 20.0 19.1 17.8 87 1.4 ENE 19 20 10 11 1019.1 - 0.0
23/07:30pm 20.3 19.0 18.1 87 1.4 ENE 22 26 12 14 1019.1 - 0.0
23/07:02pm 20.5 19.7 18.1 86 1.5 ENE 19 22 10 12 1018.8 - 0.0
23/07:00pm 20.5 19.7 18.1 86 1.5 ENE 19 22 10 12 1018.8 - 0.0
23/06:45pm 20.8 20.1 18.7 88 1.3 ENE 20 26 11 14 1018.8 - 0.0
23/06:30pm 21.1 20.3 18.1 83 1.9 ENE 19 22 10 12 1018.6 - 0.0
23/06:29pm 21.2 20.5 18.2 83 1.9 ENE 19 22 10 12 1018.6 - 0.0
23/06:24pm 21.4 20.8 18.4 83 1.9 ENE 19 22 10 12 1018.6 - 0.0
23/06:10pm 21.4 20.8 18.4 83 1.9 E 19 22 10 12 1018.4 - 0.0
23/06:08pm 21.5 21.0 18.7 84 1.8 E 19 22 10 12 1018.3 - 0.0
23/06:00pm 21.3 21.1 18.5 84 1.7 E 17 22 9 12 1018.3 1018.3 0.0
23/05:54pm 21.6 21.4 18.6 83 1.9 E 17 22 9 12 1018.2 - 0.0
23/05:30pm 21.8 21.7 18.8 83 1.9 ENE 17 20 9 11 1018.1 - 0.0
23/05:00pm 21.9 21.5 18.1 79 2.4 E 17 20 9 11 1017.9 - 0.0
23/04:52pm 22.2 22.0 18.6 80 2.3 ENE 17 20 9 11 1017.9 - 0.0
23/04:39pm 21.8 21.7 17.8 78 2.5 ENE 15 19 8 10 1018.0 - 0.0
23/04:30pm 21.9 21.9 18.1 79 2.4 ENE 15 20 8 11 1017.9 - 0.0
23/04:26pm 22.2 22.5 18.8 81 2.1 ENE 15 19 8 10 1017.8 - 0.0
23/04:07pm 21.9 22.0 18.3 80 2.2 ENE 15 17 8 9 1017.9 - 0.0
23/04:00pm 21.6 21.6 18.2 81 2.1 ENE 15 17 8 9 1017.9 - 0.0
23/03:30pm 22.0 21.8 18.4 80 2.3 ENE 17 20 9 11 1018.0 - 0.0
23/03:00pm 21.7 21.2 17.9 79 2.4 ENE 17 19 9 10 1018.2 1018.2 0.0
23/02:30pm 22.6 22.3 18.2 76 2.8 ENE 17 20 9 11 1018.4 - 0.0
23/02:00pm 22.3 21.7 18.5 79 2.4 ENE 19 24 10 13 1018.6 - 0.0
23/01:30pm 22.7 22.1 18.9 79 2.4 NE 20 24 11 13 1018.8 - 0.0
23/01:00pm 22.8 22.3 19.0 79 2.4 ENE 20 24 11 13 1019.1 - 0.0
23/12:30pm 22.2 21.1 18.6 80 2.3 NE 22 28 12 15 1019.2 - 0.0
23/12:00pm 22.6 21.4 19.2 81 2.2 NE 24 30 13 16 1019.3 1019.3 0.0
23/11:30am 22.8 21.9 18.1 75 2.9 ENE 20 24 11 13 1019.4 - 0.0
23/11:00am 22.9 21.5 18.7 77 2.7 ENE 24 28 13 15 1019.3 - 0.0
23/10:30am 21.8 20.4 18.0 79 2.4 ENE 22 28 12 15 1019.4 - 0.0
23/10:00am 21.8 20.7 17.4 76 2.7 ENE 19 24 10 13 1019.4 - 0.0
23/09:30am 22.5 21.6 18.3 77 2.6 ENE 20 26 11 14 1019.4 - 0.0
23/09:00am 21.6 19.7 16.6 73 3.0 ENE 22 28 12 15 1019.4 1019.4 0.4
23/08:30am 21.3 19.1 16.9 76 2.7 ENE 24 28 13 15 1019.3 - 0.4
23/08:00am 21.3 19.4 16.7 75 2.8 NE 22 28 12 15 1019.1 - 0.4
23/07:30am 21.6 19.7 16.6 73 3.0 ENE 22 26 12 14 1018.8 - 0.4
23/07:00am 20.7 18.8 16.7 78 2.4 ENE 22 26 12 14 1018.7 - 0.4
23/06:30am 20.4 18.5 16.6 79 2.3 ENE 22 28 12 15 1018.5 - 0.4
23/06:00am 20.2 18.1 16.2 78 2.4 ENE 22 28 12 15 1018.3 1018.3 0.4
23/05:30am 20.1 18.5 16.5 80 2.2 ENE 20 28 11 15 1018.1 - 0.4
23/05:00am 20.0 18.7 16.8 82 1.9 ENE 19 24 10 13 1018.1 - 0.4
23/04:30am 19.8 18.7 16.3 80 2.1 ENE 17 20 9 11 1017.9 - 0.4
23/04:00am 19.5 17.5 15.6 78 2.3 ENE 20 26 11 14 1017.7 - 0.4
23/03:30am 19.9 18.3 16.5 81 2.0 ENE 20 24 11 13 1017.8 - 0.4
23/03:00am 19.9 18.4 16.7 82 1.9 ENE 20 26 11 14 1017.8 1017.8 0.4
23/02:30am 19.8 18.1 16.3 80 2.1 ENE 20 24 11 13 1017.8 - 0.4
23/02:00am 19.7 18.0 16.3 81 2.0 ENE 20 24 11 13 1018.0 - 0.4
23/01:30am 19.8 18.2 16.4 81 2.0 ENE 20 26 11 14 1018.3 - 0.4
23/01:00am 20.0 17.6 16.4 80 2.2 ENE 24 28 13 15 1018.5 - 0.4
23/12:30am 19.9 18.2 16.2 79 2.2 ENE 20 26 11 14 1018.8 - 0.4
23/12:00am 19.8 18.3 16.4 81 2.0 ENE 19 24 10 13 1019.2 1019.2 0.4
 
Date/Time
EDT
Temp
°C
App
Temp
°C
Dew
Point
°C
Rel
Hum
%
Delta-T
°C
Wind Press
QNH
hPa
Press
MSL
hPa
Rain since
9am
mm
Dir  Spd
km/h
Gust
km/h
Spd
kts
Gust
kts
22/11:30pm 19.6 18.4 16.1 80 2.1 ENE 17 24 9 13 1019.5 - 0.4
22/11:00pm 19.5 17.3 16.0 80 2.1 ENE 22 28 12 15 1019.6 - 0.4
22/10:30pm 18.8 16.8 16.4 86 1.4 E 22 37 12 20 1019.7 - 0.4
22/10:00pm 19.9 17.6 14.7 72 3.0 ENE 20 24 11 13 1019.8 - 0.0
22/09:30pm 19.9 18.4 16.2 79 2.2 ENE 19 24 10 13 1019.8 - 0.0
22/09:00pm 19.9 18.1 16.0 78 2.3 E 20 26 11 14 1019.7 1019.7 0.0
22/08:30pm 19.8 17.6 15.9 78 2.3 ENE 22 30 12 16 1019.3 - 0.0
22/08:00pm 19.7 17.2 15.1 75 2.7 ENE 22 28 12 15 1019.1 - 0.0
22/07:30pm 19.6 17.7 15.3 76 2.5 ENE 19 24 10 13 1018.9 - 0.0
22/07:00pm 19.5 17.3 14.5 73 2.9 ENE 19 24 10 13 1018.7 - 0.0
22/06:30pm 19.7 17.7 14.9 74 2.8 ENE 19 24 10 13 1018.7 - 0.0
22/06:00pm 20.0 17.8 15.0 73 2.9 E 20 24 11 13 1018.5 1018.5 0.0
22/05:30pm 20.2 18.2 15.4 74 2.8 E 20 24 11 13 1018.1 - 0.0
22/05:00pm 20.6 18.8 15.4 72 3.1 E 19 24 10 13 1017.9 - 0.0
22/04:30pm 20.9 19.4 15.4 71 3.3 ENE 17 24 9 13 1018.1 - 0.0
22/04:00pm 21.3 19.6 15.8 71 3.3 E 19 24 10 13 1018.3 - 0.0
22/03:30pm 21.2 19.2 15.5 70 3.4 E 20 26 11 14 1018.3 - 0.0
22/03:00pm 21.2 19.3 15.7 71 3.3 E 20 28 11 15 1018.4 1018.4 0.0
22/02:30pm 21.6 19.5 16.1 71 3.3 E 22 28 12 15 1018.6 - 0.0

Other Formats:

Comma delimited format used in spreadsheet applications
http://www.bom.gov.au/fwo/IDN60801/IDN60801.94995.axf

JavaScript Object Notation format (JSON) in row-major order
http://www.bom.gov.au/fwo/IDN60801/IDN60801.94995.json